Terminal Aerodrome Forecast
Issued by NWS

Home | Current Version | Previous Version | Graphics & Text | Print | Product List | Glossary On
Versions: 1 2 3 4 5 6 7 8 9 10 11 12 13 14 15 16 17 18 19 20 21 22 23 24 25 26 27 28 29 30 31 32 33 34 35 36 37
000
FTUS43 KLOT 270500
TAFMDW
TAF
KMDW 270533Z 2706/2806 12005KT 4SM -SN BR SCT008 OVC012
      TEMPO 2706/2710 2SM -SN BR OVC007
     FM271000 04004KT 4SM -FZDZSN BR OVC008
     FM271300 03008KT 6SM BR OVC015
     FM271600 05010KT P6SM OVC025
     FM272000 04007KT P6SM SCT030 SCT250
     FM280100 07003KT P6SM SCT250=

USA.gov is the U.S. government's official web portal to all federal, state and local government web resources and services.